createdAt,value
2022-10-17T00:00:42.130Z,458.83
2022-10-17T00:03:09.658Z,461.83
2022-10-17T00:05:41.120Z,459.67
2022-10-17T00:08:08.084Z,456.17
2022-10-17T00:10:35.062Z,455.05
2022-10-17T00:13:01.771Z,457.02
2022-10-17T00:15:28.326Z,452.15
2022-10-17T00:17:55.002Z,443.58
2022-10-17T00:20:21.646Z,439.90
2022-10-17T00:22:48.217Z,446.02
2022-10-17T00:25:14.925Z,448.93
2022-10-17T00:27:42.583Z,447.65
2022-10-17T00:30:14.191Z,437.08
2022-10-17T00:32:41.727Z,449.60
2022-10-17T00:35:09.131Z,443.35
2022-10-17T00:37:35.729Z,451.45
2022-10-17T00:40:03.000Z,456.23
2022-10-17T00:42:30.036Z,457.67
2022-10-17T00:45:18.206Z,467.60
2022-10-17T00:47:50.231Z,464.17
2022-10-17T00:50:18.121Z,469.60
2022-10-17T00:52:47.012Z,469.52
2022-10-17T00:55:22.862Z,473.85
2022-10-17T00:57:50.379Z,472.30
2022-10-17T01:00:19.932Z,479.83
2022-10-17T01:02:46.784Z,472.52
2022-10-17T01:05:15.654Z,469.38
2022-10-17T01:07:44.181Z,466.42
2022-10-17T01:10:11.979Z,467.17
2022-10-17T01:12:58.792Z,472.45
2022-10-17T01:16:02.277Z,484.73
2022-10-17T01:18:31.765Z,479.98
2022-10-17T01:21:03.419Z,477.52
2022-10-17T01:23:33.375Z,483.60
2022-10-17T01:26:21.525Z,490.90
2022-10-17T01:29:28.509Z,496.90
2022-10-17T01:32:07.368Z,478.92
2022-10-17T01:34:37.687Z,477.02
2022-10-17T01:37:28.549Z,482.45
2022-10-17T01:39:58.534Z,482.90
2022-10-17T01:42:37.133Z,481.23
2022-10-17T01:45:18.029Z,476.15
2022-10-17T01:47:47.867Z,477.42
2022-10-17T01:50:21.303Z,478.55
2022-10-17T01:53:12.424Z,492.90
2022-10-17T01:55:43.759Z,500.23
2022-10-17T01:58:17.131Z,495.75
2022-10-17T02:00:46.602Z,496.85
2022-10-17T02:03:18.867Z,501.40
2022-10-17T02:05:45.866Z,500.38
2022-10-17T02:08:13.095Z,488.92
2022-10-17T02:10:54.307Z,487.75
2022-10-17T02:13:32.930Z,478.65
2022-10-17T02:16:13.301Z,480.98
2022-10-17T02:19:23.578Z,494.05
2022-10-17T02:22:21.149Z,489.02
2022-10-17T02:24:58.743Z,485.63
2022-10-17T02:27:56.379Z,484.27
2022-10-17T02:30:47.042Z,485.75
2022-10-17T02:33:38.173Z,487.45
2022-10-17T02:36:14.978Z,472.90
2022-10-17T02:38:44.338Z,482.23
2022-10-17T02:41:15.714Z,485.88
2022-10-17T02:43:45.464Z,491.00
2022-10-17T02:46:20.767Z,498.38
2022-10-17T02:48:53.301Z,499.83
2022-10-17T02:52:01.203Z,500.33
2022-10-17T02:54:42.815Z,489.70
2022-10-17T02:57:18.844Z,501.90
2022-10-17T02:59:46.813Z,499.07
2022-10-17T03:02:13.469Z,517.35
2022-10-17T03:04:46.618Z,525.08
2022-10-17T03:07:13.578Z,520.88
2022-10-17T03:09:40.123Z,512.10
2022-10-17T03:12:06.691Z,521.40
2022-10-17T03:14:33.993Z,520.72
2022-10-17T03:17:00.989Z,515.92
2022-10-17T03:19:27.662Z,520.08
2022-10-17T03:21:54.301Z,525.05
2022-10-17T03:24:21.721Z,524.42
2022-10-17T03:26:48.340Z,516.28
2022-10-17T03:29:15.048Z,519.35
2022-10-17T03:31:41.994Z,511.02
2022-10-17T03:34:09.927Z,507.20
2022-10-17T03:36:36.762Z,513.35
2022-10-17T03:39:04.032Z,511.88
2022-10-17T03:41:31.127Z,509.90
2022-10-17T03:43:58.144Z,503.23
2022-10-17T03:46:25.240Z,510.97
2022-10-17T03:48:52.462Z,512.08
2022-10-17T03:51:19.402Z,514.85
2022-10-17T03:53:51.154Z,513.33
2022-10-17T03:56:21.066Z,511.33
2022-10-17T03:58:56.552Z,515.43
2022-10-17T04:01:23.921Z,513.13
2022-10-17T04:03:52.713Z,462.83
2022-10-17T04:06:20.345Z,482.33
2022-10-17T04:08:47.593Z,500.05
2022-10-17T04:11:21.518Z,505.07
2022-10-17T04:13:53.975Z,493.70
2022-10-17T04:16:20.928Z,482.17
2022-10-17T04:18:59.860Z,467.73
2022-10-17T04:21:30.424Z,466.33
2022-10-17T04:24:01.359Z,471.10
2022-10-17T04:26:51.300Z,459.10
2022-10-17T04:29:19.332Z,464.65
2022-10-17T04:31:49.863Z,455.98
2022-10-17T04:34:30.180Z,464.02
2022-10-17T04:36:57.198Z,459.13
2022-10-17T04:39:23.935Z,458.17
2022-10-17T04:41:51.107Z,468.55
2022-10-17T04:44:18.059Z,466.80
2022-10-17T04:46:50.737Z,480.33
2022-10-17T04:49:17.419Z,483.60
2022-10-17T04:51:47.345Z,461.27
2022-10-17T04:54:20.811Z,456.92
2022-10-17T04:56:52.898Z,464.23
2022-10-17T04:59:19.674Z,466.40
2022-10-17T05:01:49.775Z,454.80
2022-10-17T05:04:21.099Z,442.70
2022-10-17T05:06:50.649Z,419.27
2022-10-17T05:09:37.393Z,436.37
2022-10-17T05:12:06.753Z,448.75
2022-10-17T05:14:37.609Z,444.63
2022-10-17T05:17:05.053Z,459.40
2022-10-17T05:19:31.696Z,442.58
2022-10-17T05:21:59.129Z,434.10
2022-10-17T05:24:25.745Z,438.17
2022-10-17T05:26:53.239Z,440.77
2022-10-17T05:29:20.030Z,441.73
2022-10-17T05:31:52.109Z,441.08
2022-10-17T05:34:19.543Z,445.65
2022-10-17T05:36:46.298Z,462.98
2022-10-17T05:39:19.453Z,442.00
2022-10-17T05:41:47.583Z,439.63
2022-10-17T05:44:14.255Z,429.08
2022-10-17T05:46:45.089Z,437.88
2022-10-17T05:49:19.675Z,434.07
2022-10-17T05:51:52.457Z,435.85
2022-10-17T05:54:19.209Z,443.70
2022-10-17T05:56:45.846Z,451.25
2022-10-17T05:59:12.444Z,442.70
2022-10-17T06:01:48.359Z,450.15
2022-10-17T06:04:21.111Z,437.23
2022-10-17T06:06:47.741Z,427.75
2022-10-17T06:09:14.348Z,429.23
2022-10-17T06:11:46.142Z,425.05
2022-10-17T06:14:12.942Z,434.65
2022-10-17T06:16:41.069Z,418.30
2022-10-17T06:19:07.932Z,417.95
2022-10-17T06:21:36.634Z,405.60
2022-10-17T06:24:10.639Z,410.25
2022-10-17T06:26:40.646Z,417.00
2022-10-17T06:29:08.743Z,427.50
2022-10-17T06:31:41.542Z,420.67
2022-10-17T06:34:08.269Z,429.00
2022-10-17T06:36:35.389Z,424.67
2022-10-17T06:39:02.355Z,445.08
2022-10-17T06:41:35.860Z,432.08
2022-10-17T06:44:10.995Z,427.92
2022-10-17T06:46:46.926Z,423.30
2022-10-17T06:49:16.579Z,427.58
2022-10-17T06:52:17.423Z,418.02
2022-10-17T06:54:58.249Z,418.00
2022-10-17T06:57:41.851Z,418.38
2022-10-17T07:00:28.331Z,416.38
2022-10-17T07:02:56.946Z,421.67
2022-10-17T07:05:23.668Z,420.65
2022-10-17T07:07:51.851Z,424.42
2022-10-17T07:10:19.030Z,420.20
2022-10-17T07:12:45.913Z,422.52
2022-10-17T07:15:12.848Z,426.95
2022-10-17T07:17:39.561Z,421.85
2022-10-17T07:20:06.723Z,429.02
2022-10-17T07:22:35.418Z,414.67
2022-10-17T07:25:02.068Z,409.65
2022-10-17T07:27:44.664Z,411.77
2022-10-17T07:30:11.871Z,407.05
2022-10-17T07:32:40.847Z,407.70
2022-10-17T07:35:10.130Z,397.92
2022-10-17T07:37:37.182Z,396.83
2022-10-17T07:40:07.162Z,391.38
2022-10-17T07:42:36.658Z,396.73
2022-10-17T07:45:05.029Z,406.23
2022-10-17T07:47:35.557Z,392.77
2022-10-17T07:50:04.183Z,391.80
2022-10-17T07:52:31.302Z,395.48
2022-10-17T07:54:58.111Z,393.40
2022-10-17T07:57:24.863Z,389.55
2022-10-17T07:59:51.523Z,386.48
2022-10-17T08:02:26.090Z,377.87
2022-10-17T08:04:53.182Z,385.40
2022-10-17T08:07:24.159Z,389.90
2022-10-17T08:09:53.610Z,395.08
2022-10-17T08:12:20.403Z,417.00
2022-10-17T08:14:48.106Z,410.52
2022-10-17T08:17:14.699Z,405.45
2022-10-17T08:19:41.336Z,402.48
2022-10-17T08:22:08.294Z,403.97
2022-10-17T08:24:35.101Z,396.17
2022-10-17T08:27:02.120Z,410.07
2022-10-17T08:29:28.841Z,402.98
2022-10-17T08:32:00.960Z,411.63
2022-10-17T08:34:28.187Z,423.42
2022-10-17T08:36:54.779Z,425.40
2022-10-17T08:39:21.389Z,398.27
2022-10-17T08:41:54.153Z,393.37
2022-10-17T08:44:39.336Z,391.83
2022-10-17T08:47:14.913Z,387.13
2022-10-17T08:49:52.474Z,390.10
2022-10-17T08:52:29.554Z,391.92
2022-10-17T08:54:56.548Z,388.97
2022-10-17T08:57:23.209Z,374.13
2022-10-17T08:59:52.595Z,368.45
2022-10-17T09:02:33.325Z,356.70
2022-10-17T09:05:25.479Z,331.98
2022-10-17T09:08:00.676Z,331.67
2022-10-17T09:10:33.430Z,326.03
2022-10-17T09:13:08.875Z,332.77
2022-10-17T09:16:04.005Z,322.05
2022-10-17T09:18:39.613Z,317.67
2022-10-17T09:21:40.309Z,317.23
2022-10-17T09:24:16.020Z,314.73
2022-10-17T09:26:45.447Z,306.25
2022-10-17T09:29:20.544Z,302.67
2022-10-17T09:32:15.481Z,295.83
2022-10-17T09:34:42.149Z,294.67
2022-10-17T09:37:14.596Z,304.73
2022-10-17T09:39:43.354Z,291.13
2022-10-17T09:42:15.141Z,288.92
2022-10-17T09:45:02.564Z,265.45
2022-10-17T09:47:59.508Z,269.52
2022-10-17T09:50:31.405Z,268.23
2022-10-17T09:53:21.966Z,272.38
2022-10-17T09:55:56.286Z,282.42
2022-10-17T09:58:23.597Z,272.45
2022-10-17T10:00:50.291Z,254.45
2022-10-17T10:03:25.466Z,262.52
2022-10-17T10:06:16.658Z,253.45
2022-10-17T10:08:55.117Z,263.98
2022-10-17T10:11:47.076Z,272.73
2022-10-17T10:14:20.386Z,261.88
2022-10-17T10:16:48.339Z,267.08
2022-10-17T10:19:32.102Z,264.80
2022-10-17T10:22:01.325Z,270.25
2022-10-17T10:24:30.996Z,274.42
2022-10-17T10:27:01.627Z,281.42
2022-10-17T10:29:31.301Z,287.45
2022-10-17T10:32:09.003Z,274.33
2022-10-17T10:34:37.166Z,270.13
2022-10-17T10:37:16.232Z,280.08
2022-10-17T10:39:51.914Z,288.85
2022-10-17T10:42:42.314Z,300.08
2022-10-17T10:45:23.716Z,330.73
2022-10-17T10:48:20.538Z,334.70
2022-10-17T10:51:01.692Z,347.38
2022-10-17T10:53:35.891Z,333.40
2022-10-17T10:56:25.814Z,345.13
2022-10-17T10:59:04.664Z,328.77
2022-10-17T11:01:34.111Z,315.08
2022-10-17T11:04:25.561Z,315.58
2022-10-17T11:06:58.853Z,323.63
2022-10-17T11:09:58.769Z,318.58
2022-10-17T11:12:31.505Z,332.17
2022-10-17T11:15:17.103Z,313.08
2022-10-17T11:18:30.297Z,312.02
2022-10-17T11:21:05.254Z,311.85
2022-10-17T11:23:51.977Z,324.65
2022-10-17T11:26:26.925Z,306.00
2022-10-17T11:28:54.955Z,316.50
2022-10-17T11:31:25.700Z,312.50
2022-10-17T11:34:00.406Z,321.55
2022-10-17T11:36:31.671Z,317.42
2022-10-17T11:39:30.053Z,316.13
2022-10-17T11:42:06.979Z,314.63
2022-10-17T11:44:41.369Z,301.60
2022-10-17T11:47:35.892Z,298.42
2022-10-17T11:53:15.930Z,290.30
2022-10-17T11:55:44.598Z,277.77
2022-10-17T11:58:11.137Z,279.55
2022-10-17T12:00:55.859Z,284.23
2022-10-17T12:03:51.837Z,272.33
2022-10-17T12:06:53.774Z,267.95
2022-10-17T12:09:29.300Z,276.10
2022-10-17T12:12:02.442Z,270.65
2022-10-17T12:14:39.612Z,252.85
2022-10-17T12:17:25.328Z,244.93
2022-10-17T12:19:51.965Z,247.73
2022-10-17T12:22:23.142Z,244.45
2022-10-17T12:25:04.030Z,234.15
2022-10-17T12:27:32.847Z,232.45
2022-10-17T12:30:07.005Z,209.70
2022-10-17T12:33:03.758Z,210.52
2022-10-17T12:35:23.572Z,189.20
2022-10-17T12:37:55.227Z,179.00
2022-10-17T12:40:36.147Z,179.52
2022-10-17T12:43:28.174Z,193.55
2022-10-17T12:45:54.842Z,214.45
2022-10-17T12:48:33.817Z,245.57
2022-10-17T12:51:30.859Z,277.38
2022-10-17T12:53:59.228Z,306.23
2022-10-17T12:56:37.573Z,330.63
2022-10-17T12:59:27.686Z,333.85
2022-10-17T13:02:00.013Z,343.90
2022-10-17T13:04:28.500Z,351.27
2022-10-17T13:06:58.685Z,368.05
2022-10-17T13:09:31.403Z,367.13
2022-10-17T13:12:01.447Z,360.15
2022-10-17T13:14:29.168Z,353.92
2022-10-17T13:16:57.523Z,364.02
2022-10-17T13:19:30.571Z,363.27
2022-10-17T13:22:06.695Z,362.20
2022-10-17T13:24:39.024Z,377.83
2022-10-17T13:27:21.428Z,380.92
2022-10-17T13:29:48.161Z,384.10
2022-10-17T13:32:14.720Z,388.98
2022-10-17T13:34:41.498Z,402.77
2022-10-17T13:37:13.385Z,408.20
2022-10-17T13:39:55.233Z,398.77
2022-10-17T13:42:31.281Z,409.08
2022-10-17T13:44:59.472Z,415.70
2022-10-17T13:47:29.614Z,408.35
2022-10-17T13:49:57.783Z,407.20
2022-10-17T13:52:30.422Z,403.25
2022-10-17T13:55:17.458Z,407.83
2022-10-17T13:57:44.451Z,408.00
2022-10-17T14:00:19.657Z,425.02
2022-10-17T14:02:46.866Z,422.98
2022-10-17T14:05:18.632Z,432.95
2022-10-17T14:08:10.630Z,419.58
2022-10-17T14:10:40.677Z,425.13
2022-10-17T14:13:19.132Z,428.67
2022-10-17T14:15:46.574Z,415.65
2022-10-17T14:18:34.905Z,431.02
2022-10-17T14:23:53.069Z,446.10
2022-10-17T14:26:22.091Z,440.20
2022-10-17T14:29:12.792Z,434.57
2022-10-17T14:31:40.078Z,425.42
2022-10-17T14:34:06.705Z,427.90
2022-10-17T14:36:37.806Z,439.58
2022-10-17T14:39:11.867Z,436.80
2022-10-17T14:41:45.276Z,438.08
2022-10-17T14:44:31.847Z,409.50
2022-10-17T14:47:30.791Z,419.42
2022-10-17T14:50:23.680Z,432.77
2022-10-17T14:53:02.238Z,435.45
2022-10-17T14:55:31.395Z,421.52
2022-10-17T14:57:57.989Z,423.30
2022-10-17T15:00:25.633Z,445.90
2022-10-17T15:02:53.969Z,437.43
2022-10-17T15:05:23.053Z,427.75
2022-10-17T15:07:50.047Z,420.33
2022-10-17T15:10:33.025Z,409.47
2022-10-17T15:13:26.087Z,412.47
2022-10-17T15:15:52.025Z,411.33
2022-10-17T15:18:19.206Z,385.30
2022-10-17T15:20:45.842Z,385.02
2022-10-17T15:23:12.590Z,395.70
2022-10-17T15:25:39.474Z,396.58
2022-10-17T15:28:06.391Z,407.95
2022-10-17T15:30:36.348Z,405.95
2022-10-17T15:33:03.117Z,402.63
2022-10-17T15:35:30.280Z,413.08
2022-10-17T15:37:56.953Z,392.17
2022-10-17T15:40:28.749Z,385.55
2022-10-17T15:42:56.435Z,405.45
2022-10-17T15:45:23.621Z,399.80
2022-10-17T15:47:57.166Z,391.05
2022-10-17T15:50:23.839Z,401.00
2022-10-17T15:52:51.071Z,407.50
2022-10-17T15:55:18.623Z,405.80
2022-10-17T15:57:47.493Z,419.48
2022-10-17T16:00:22.980Z,414.60
2022-10-17T16:02:50.325Z,425.02
2022-10-17T16:05:23.030Z,432.83
2022-10-17T16:07:50.091Z,426.33
2022-10-17T16:10:17.096Z,411.55
2022-10-17T16:12:44.538Z,406.77
2022-10-17T16:15:17.149Z,429.35
2022-10-17T16:17:44.374Z,422.42
2022-10-17T16:20:12.651Z,398.92
2022-10-17T16:22:42.064Z,414.48
2022-10-17T16:25:24.992Z,399.85
2022-10-17T16:27:54.298Z,381.17
2022-10-17T16:32:49.361Z,391.95
2022-10-17T16:35:25.499Z,388.88
2022-10-17T16:37:52.281Z,377.38
2022-10-17T16:40:19.021Z,374.85
2022-10-17T16:42:45.765Z,371.38
2022-10-17T16:45:18.549Z,377.10
2022-10-17T16:47:45.709Z,368.00
2022-10-17T16:50:13.344Z,358.08
2022-10-17T16:52:39.965Z,359.27
2022-10-17T16:55:08.860Z,337.23
2022-10-17T17:00:12.974Z,355.50
2022-10-17T17:02:41.964Z,350.65
2022-10-17T17:05:08.839Z,347.38
2022-10-17T17:07:35.661Z,350.77
2022-10-17T17:10:02.612Z,339.92
2022-10-17T17:12:29.628Z,332.95
2022-10-17T17:14:56.552Z,328.83
2022-10-17T17:17:37.218Z,314.67
2022-10-17T17:20:10.071Z,325.48
2022-10-17T17:22:36.712Z,320.55
2022-10-17T17:25:03.453Z,322.92
2022-10-17T17:27:30.605Z,317.83
2022-10-17T17:29:57.610Z,334.38
2022-10-17T17:32:24.246Z,327.38
2022-10-17T17:34:50.893Z,339.75
2022-10-17T17:37:17.655Z,322.98
2022-10-17T17:39:44.305Z,322.63
2022-10-17T17:42:10.984Z,327.15
2022-10-17T17:44:37.720Z,342.42
2022-10-17T17:47:04.421Z,330.98
2022-10-17T17:49:30.977Z,344.27
2022-10-17T17:52:00.005Z,338.10
2022-10-17T17:54:31.614Z,360.63
2022-10-17T17:56:58.456Z,337.23
2022-10-17T17:59:26.249Z,351.05
2022-10-17T18:01:53.280Z,320.35
2022-10-17T18:04:19.983Z,345.77
2022-10-17T18:06:46.770Z,341.67
2022-10-17T18:09:13.350Z,337.58
2022-10-17T18:11:40.030Z,330.15
2022-10-17T18:14:10.361Z,325.88
2022-10-17T18:16:37.533Z,343.60
2022-10-17T18:19:07.294Z,358.02
2022-10-17T18:21:35.330Z,347.23
2022-10-17T18:24:02.593Z,359.13
2022-10-17T18:26:29.240Z,368.48
2022-10-17T18:28:56.656Z,375.42
2022-10-17T18:31:28.281Z,386.23
2022-10-17T18:33:56.936Z,383.35
2022-10-17T18:36:26.044Z,370.35
2022-10-17T18:38:53.442Z,376.67
2022-10-17T18:41:21.844Z,372.00
2022-10-17T18:43:49.475Z,372.45
2022-10-17T18:46:18.338Z,351.42
2022-10-17T18:48:46.462Z,341.35
2022-10-17T18:51:18.964Z,343.07
2022-10-17T18:53:48.062Z,352.05
2022-10-17T18:56:15.113Z,361.15
2022-10-17T18:58:42.315Z,361.42
2022-10-17T19:01:17.618Z,362.40
2022-10-17T19:03:46.958Z,351.45
2022-10-17T19:06:15.909Z,340.50
2022-10-17T19:08:43.490Z,360.23
2022-10-17T19:11:15.823Z,356.08
2022-10-17T19:13:43.655Z,346.40
2022-10-17T19:16:19.451Z,347.88
2022-10-17T19:18:51.248Z,350.97
2022-10-17T19:21:21.752Z,369.33
2022-10-17T19:23:53.541Z,348.17
2022-10-17T19:26:21.407Z,354.73
2022-10-17T19:28:48.442Z,356.83
2022-10-17T19:31:17.939Z,356.02
2022-10-17T19:33:45.233Z,366.73
2022-10-17T19:36:13.253Z,361.92
2022-10-17T19:38:39.978Z,362.45
2022-10-17T19:41:08.232Z,393.48
2022-10-17T19:43:39.034Z,378.27
2022-10-17T19:46:08.317Z,371.38
2022-10-17T19:48:39.200Z,368.15
2022-10-17T19:51:07.750Z,407.58
2022-10-17T19:53:35.156Z,387.63
2022-10-17T19:56:02.414Z,378.75
2022-10-17T19:58:29.210Z,381.40
2022-10-17T20:00:58.572Z,367.85
2022-10-17T20:03:25.462Z,382.10
2022-10-17T20:05:52.192Z,401.75
2022-10-17T20:08:19.159Z,388.17
2022-10-17T20:10:46.331Z,392.90
2022-10-17T20:13:14.110Z,406.13
2022-10-17T20:15:40.936Z,393.83
2022-10-17T20:18:08.223Z,383.10
2022-10-17T20:20:35.845Z,384.58
2022-10-17T20:23:03.439Z,388.10
2022-10-17T20:25:30.561Z,395.52
2022-10-17T20:27:57.187Z,390.70
2022-10-17T20:30:23.861Z,380.70
2022-10-17T20:32:55.125Z,394.25
2022-10-17T20:35:22.215Z,398.13
2022-10-17T20:37:49.418Z,388.67
2022-10-17T20:40:34.033Z,363.92
2022-10-17T20:43:01.857Z,387.08
2022-10-17T20:45:43.617Z,360.55
2022-10-17T20:48:16.574Z,358.40
2022-10-17T20:50:44.081Z,367.42
2022-10-17T20:53:35.396Z,373.80
2022-10-17T20:56:04.542Z,371.45
2022-10-17T20:58:31.502Z,384.20
2022-10-17T21:00:58.175Z,379.17
2022-10-17T21:03:26.137Z,364.42
2022-10-17T21:05:52.743Z,385.13
2022-10-17T21:08:19.410Z,377.40
2022-10-17T21:10:46.069Z,399.40
2022-10-17T21:13:12.751Z,405.17
2022-10-17T21:15:39.303Z,480.52
2022-10-17T21:18:05.962Z,428.67
2022-10-17T21:20:32.538Z,439.67
2022-10-17T21:23:00.547Z,436.92
2022-10-17T21:25:27.323Z,470.67
2022-10-17T21:27:54.099Z,483.48
2022-10-17T21:30:21.841Z,453.45
2022-10-17T21:32:53.984Z,499.73
2022-10-17T21:35:21.001Z,474.48
2022-10-17T21:37:47.653Z,488.38
2022-10-17T21:40:14.586Z,445.60
2022-10-17T21:42:41.308Z,452.65
2022-10-17T21:45:15.168Z,465.33
2022-10-17T21:47:54.943Z,468.63
2022-10-17T21:50:29.626Z,460.30
2022-10-17T21:52:58.130Z,452.30
2022-10-17T21:55:24.822Z,430.80
2022-10-17T21:57:53.220Z,452.33
2022-10-17T22:00:19.853Z,417.63
2022-10-17T22:02:46.427Z,473.40
2022-10-17T22:05:13.103Z,466.45
2022-10-17T22:07:39.838Z,469.38
2022-10-17T22:10:07.000Z,443.98
2022-10-17T22:12:33.742Z,461.42
2022-10-17T22:15:00.565Z,438.17
2022-10-17T22:17:27.461Z,440.42
2022-10-17T22:19:54.295Z,424.23
2022-10-17T22:22:21.050Z,465.27
2022-10-17T22:24:47.600Z,418.05
2022-10-17T22:27:14.165Z,441.00
2022-10-17T22:29:40.787Z,417.63
2022-10-17T22:32:07.395Z,431.30
2022-10-17T22:34:33.966Z,445.23
2022-10-17T22:37:01.055Z,453.43
2022-10-17T22:39:27.619Z,432.30
2022-10-17T22:41:54.227Z,415.52
2022-10-17T22:44:20.907Z,424.55
2022-10-17T22:46:47.710Z,428.33
2022-10-17T22:49:14.384Z,447.58
2022-10-17T22:51:41.043Z,449.27
2022-10-17T22:54:07.801Z,425.77
2022-10-17T22:56:34.438Z,432.23
2022-10-17T22:59:02.177Z,413.77
2022-10-17T23:01:28.936Z,403.45
2022-10-17T23:03:55.558Z,406.33
2022-10-17T23:06:24.060Z,437.27
2022-10-17T23:08:50.804Z,416.25
2022-10-17T23:11:18.088Z,436.38
2022-10-17T23:13:44.748Z,408.67
2022-10-17T23:16:11.419Z,417.23
2022-10-17T23:18:38.801Z,414.70
2022-10-17T23:21:06.525Z,437.40
2022-10-17T23:23:33.488Z,411.38
2022-10-17T23:26:09.828Z,420.40
2022-10-17T23:28:36.803Z,447.35
2022-10-17T23:31:18.632Z,419.43
2022-10-17T23:33:46.909Z,412.27
2022-10-17T23:36:15.047Z,412.73
2022-10-17T23:38:43.691Z,413.40
2022-10-17T23:41:11.112Z,417.80
2022-10-17T23:43:37.806Z,415.55
2022-10-17T23:46:05.722Z,415.05
2022-10-17T23:48:32.851Z,410.48
2022-10-17T23:51:02.267Z,418.35
2022-10-17T23:53:28.921Z,414.10
2022-10-17T23:55:55.682Z,422.00
2022-10-17T23:58:22.574Z,415.17
